Terminal Aerodrome Forecast
Issued by NWS Sioux Falls, SD

Home | Current Version | Previous Version | Text Only | Print | Product List | Glossary Off
Versions: 1 2 3 4 5 6 7 8 9 10 11 12

773
FTUS43 KFSD 291720
TAFHON
TAF
KHON 291720Z 2918/3018 05011KT P6SM SCT250
     FM292000 05013G19KT P6SM SCT250
     FM300100 05007KT P6SM BKN130
     FM301000 02008KT P6SM OVC100
     FM301300 03011KT P6SM BKN100
     FM301500 03015G23KT P6SM BKN080=

USA.gov is the U.S. government's official web portal to all federal, state and local government web resources and services.